sensor_id;sensor_type;location;lat;lon;timestamp;pressure;altitude;pressure_sealevel;temperature;humidity
67987;BME280;54767;53.800;15.956;2023-09-07T00:16:23;101301.77;;;18.06;72.78
67987;BME280;54767;53.800;15.956;2023-09-07T00:47:57;101314.95;;;17.99;72.33
67987;BME280;54767;53.800;15.956;2023-09-07T00:51:08;101317.09;;;17.98;72.34
67987;BME280;54767;53.800;15.956;2023-09-07T00:54:46;101313.58;;;17.95;72.38
67987;BME280;54767;53.800;15.956;2023-09-07T00:57:47;101313.04;;;17.97;72.59
67987;BME280;54767;53.800;15.956;2023-09-07T01:04:01;101312.34;;;17.95;72.70
67987;BME280;54767;53.800;15.956;2023-09-07T01:07:46;101312.67;;;17.97;72.50
67987;BME280;54767;53.800;15.956;2023-09-07T01:10:20;101315.31;;;18.00;72.74
67987;BME280;54767;53.800;15.956;2023-09-07T01:17:04;101297.67;;;17.92;73.01
67987;BME280;54767;53.800;15.956;2023-09-07T01:19:37;101303.65;;;17.97;73.07
67987;BME280;54767;53.800;15.956;2023-09-07T01:22:33;101306.65;;;17.97;73.15
67987;BME280;54767;53.800;15.956;2023-09-07T01:29:48;101306.32;;;17.96;72.31
67987;BME280;54767;53.800;15.956;2023-09-07T01:33:09;101300.39;;;17.86;71.92
67987;BME280;54767;53.800;15.956;2023-09-07T01:36:10;101304.36;;;17.79;71.93
67987;BME280;54767;53.800;15.956;2023-09-07T02:04:26;101310.02;;;17.39;71.99
67987;BME280;54767;53.800;15.956;2023-09-07T02:07:24;101311.65;;;17.37;71.99
67987;BME280;54767;53.800;15.956;2023-09-07T02:09:52;101311.66;;;17.36;72.12
67987;BME280;54767;53.800;15.956;2023-09-07T02:12:51;101314.52;;;17.36;72.10
67987;BME280;54767;53.800;15.956;2023-09-07T02:15:18;101311.50;;;17.35;72.06
67987;BME280;54767;53.800;15.956;2023-09-07T02:17:45;101316.30;;;17.32;72.03
67987;BME280;54767;53.800;15.956;2023-09-07T02:20:12;101322.68;;;17.30;72.04
67987;BME280;54767;53.800;15.956;2023-09-07T02:22:40;101319.49;;;17.29;71.98
67987;BME280;54767;53.800;15.956;2023-09-07T02:25:07;101315.07;;;17.31;72.25
67987;BME280;54767;53.800;15.956;2023-09-07T02:27:35;101318.23;;;17.32;72.33
67987;BME280;54767;53.800;15.956;2023-09-07T02:30:03;101316.29;;;17.33;72.48
67987;BME280;54767;53.800;15.956;2023-09-07T02:32:31;101318.58;;;17.34;72.58
67987;BME280;54767;53.800;15.956;2023-09-07T02:34:58;101310.96;;;17.34;72.60
67987;BME280;54767;53.800;15.956;2023-09-07T02:37:25;101312.54;;;17.36;72.60
67987;BME280;54767;53.800;15.956;2023-09-07T02:39:52;101311.64;;;17.37;72.67
67987;BME280;54767;53.800;15.956;2023-09-07T02:42:19;101313.05;;;17.38;72.59
67987;BME280;54767;53.800;15.956;2023-09-07T02:44:46;101310.92;;;17.39;72.68
67987;BME280;54767;53.800;15.956;2023-09-07T02:47:13;101309.33;;;17.39;72.57
67987;BME280;54767;53.800;15.956;2023-09-07T02:49:40;101310.40;;;17.38;72.40
67987;BME280;54767;53.800;15.956;2023-09-07T02:52:08;101313.61;;;17.35;71.91
67987;BME280;54767;53.800;15.956;2023-09-07T02:54:35;101312.41;;;17.30;71.80
67987;BME280;54767;53.800;15.956;2023-09-07T02:57:02;101314.42;;;17.24;71.45
67987;BME280;54767;53.800;15.956;2023-09-07T02:59:29;101314.67;;;17.13;71.06
67987;BME280;54767;53.800;15.956;2023-09-07T03:01:56;101315.44;;;17.06;71.28
67987;BME280;54767;53.800;15.956;2023-09-07T03:04:23;101312.28;;;17.03;71.69
67987;BME280;54767;53.800;15.956;2023-09-07T03:06:50;101308.55;;;17.03;72.06
67987;BME280;54767;53.800;15.956;2023-09-07T03:09:17;101309.44;;;17.04;72.33
67987;BME280;54767;53.800;15.956;2023-09-07T03:11:44;101313.15;;;17.05;72.52
67987;BME280;54767;53.800;15.956;2023-09-07T03:14:11;101314.90;;;17.08;72.64
67987;BME280;54767;53.800;15.956;2023-09-07T03:16:38;101312.75;;;17.09;72.54
67987;BME280;54767;53.800;15.956;2023-09-07T03:19:05;101311.89;;;17.09;72.19
67987;BME280;54767;53.800;15.956;2023-09-07T03:21:33;101309.08;;;17.05;71.74
67987;BME280;54767;53.800;15.956;2023-09-07T03:24:00;101309.14;;;16.98;71.39
67987;BME280;54767;53.800;15.956;2023-09-07T03:26:27;101310.61;;;16.90;71.31
67987;BME280;54767;53.800;15.956;2023-09-07T03:28:54;101313.63;;;16.86;71.70
67987;BME280;54767;53.800;15.956;2023-09-07T03:31:41;101315.76;;;16.85;72.14
67987;BME280;54767;53.800;15.956;2023-09-07T03:34:08;101312.23;;;16.87;72.33
67987;BME280;54767;53.800;15.956;2023-09-07T03:36:38;101313.09;;;16.90;72.39
67987;BME280;54767;53.800;15.956;2023-09-07T03:39:07;101316.77;;;16.92;72.63
67987;BME280;54767;53.800;15.956;2023-09-07T03:41:37;101313.95;;;16.93;72.64
67987;BME280;54767;53.800;15.956;2023-09-07T03:44:05;101316.95;;;16.93;72.52
67987;BME280;54767;53.800;15.956;2023-09-07T03:46:32;101315.71;;;16.93;72.61
67987;BME280;54767;53.800;15.956;2023-09-07T03:49:00;101314.30;;;16.93;72.51
67987;BME280;54767;53.800;15.956;2023-09-07T03:51:31;101318.54;;;16.93;72.29
67987;BME280;54767;53.800;15.956;2023-09-07T03:54:00;101314.84;;;16.91;72.07
67987;BME280;54767;53.800;15.956;2023-09-07T03:56:48;101313.27;;;16.89;71.66
67987;BME280;54767;53.800;15.956;2023-09-07T03:59:15;101317.02;;;16.84;71.61
67987;BME280;54767;53.800;15.956;2023-09-07T04:01:43;101317.91;;;16.81;71.93
67987;BME280;54767;53.800;15.956;2023-09-07T04:04:31;101317.23;;;16.79;72.47
67987;BME280;54767;53.800;15.956;2023-09-07T04:07:06;101319.70;;;16.78;72.55
67987;BME280;54767;53.800;15.956;2023-09-07T04:09:53;101320.05;;;16.78;72.18
67987;BME280;54767;53.800;15.956;2023-09-07T04:13:21;101319.70;;;16.71;71.56
67987;BME280;54767;53.800;15.956;2023-09-07T04:16:11;101324.54;;;16.62;71.36
67987;BME280;54767;53.800;15.956;2023-09-07T04:18:48;101322.44;;;16.58;71.89
67987;BME280;54767;53.800;15.956;2023-09-07T04:21:19;101326.67;;;16.58;72.18
67987;BME280;54767;53.800;15.956;2023-09-07T04:24:14;101326.16;;;16.58;72.53
67987;BME280;54767;53.800;15.956;2023-09-07T04:27:25;101325.61;;;16.59;72.43
67987;BME280;54767;53.800;15.956;2023-09-07T04:29:56;101327.73;;;16.60;72.35
67987;BME280;54767;53.800;15.956;2023-09-07T04:32:23;101330.19;;;16.61;72.62
67987;BME280;54767;53.800;15.956;2023-09-07T04:34:55;101329.48;;;16.63;72.40
67987;BME280;54767;53.800;15.956;2023-09-07T04:37:42;101335.15;;;16.60;71.95
67987;BME280;54767;53.800;15.956;2023-09-07T04:40:15;101334.30;;;16.53;71.80
67987;BME280;54767;53.800;15.956;2023-09-07T04:42:43;101335.22;;;16.47;71.84
67987;BME280;54767;53.800;15.956;2023-09-07T04:45:12;101336.48;;;16.41;71.73
67987;BME280;54767;53.800;15.956;2023-09-07T04:47:41;101338.96;;;16.37;71.83
67987;BME280;54767;53.800;15.956;2023-09-07T04:50:09;101335.44;;;16.37;72.27
67987;BME280;54767;53.800;15.956;2023-09-07T04:52:38;101339.66;;;16.39;72.53
67987;BME280;54767;53.800;15.956;2023-09-07T04:55:06;101339.13;;;16.41;72.82
67987;BME280;54767;53.800;15.956;2023-09-07T04:57:36;101341.04;;;16.45;73.23
67987;BME280;54767;53.800;15.956;2023-09-07T05:00:05;101339.98;;;16.49;73.35
67987;BME280;54767;53.800;15.956;2023-09-07T05:02:33;101341.71;;;16.54;73.49
67987;BME280;54767;53.800;15.956;2023-09-07T05:05:05;101344.70;;;16.60;73.57
67987;BME280;54767;53.800;15.956;2023-09-07T05:07:33;101341.66;;;16.64;73.72
67987;BME280;54767;53.800;15.956;2023-09-07T05:10:03;101345.55;;;16.67;73.91
67987;BME280;54767;53.800;15.956;2023-09-07T05:12:30;101348.88;;;16.69;74.10
67987;BME280;54767;53.800;15.956;2023-09-07T05:15:00;101346.39;;;16.71;74.04
67987;BME280;54767;53.800;15.956;2023-09-07T05:17:27;101347.61;;;16.74;74.00
67987;BME280;54767;53.800;15.956;2023-09-07T05:19:56;101349.40;;;16.76;74.01
67987;BME280;54767;53.800;15.956;2023-09-07T05:22:23;101348.52;;;16.77;74.04
67987;BME280;54767;53.800;15.956;2023-09-07T05:24:53;101352.40;;;16.78;74.18
67987;BME280;54767;53.800;15.956;2023-09-07T05:27:21;101355.92;;;16.80;74.36
67987;BME280;54767;53.800;15.956;2023-09-07T05:29:50;101353.27;;;16.82;74.38
67987;BME280;54767;53.800;15.956;2023-09-07T05:32:18;101354.48;;;16.85;74.51
67987;BME280;54767;53.800;15.956;2023-09-07T05:34:46;101358.34;;;16.90;74.52
67987;BME280;54767;53.800;15.956;2023-09-07T05:37:17;101362.55;;;16.95;74.59
67987;BME280;54767;53.800;15.956;2023-09-07T05:39:46;101362.00;;;17.01;74.69
67987;BME280;54767;53.800;15.956;2023-09-07T05:42:14;101360.54;;;17.07;74.81
67987;BME280;54767;53.800;15.956;2023-09-07T05:44:44;101361.23;;;17.11;74.84
67987;BME280;54767;53.800;15.956;2023-09-07T05:47:11;101366.67;;;17.14;74.79
67987;BME280;54767;53.800;15.956;2023-09-07T05:49:39;101363.45;;;17.20;74.99
67987;BME280;54767;53.800;15.956;2023-09-07T05:52:08;101366.96;;;17.24;75.01
67987;BME280;54767;53.800;15.956;2023-09-07T05:54:36;101363.38;;;17.30;75.05
67987;BME280;54767;53.800;15.956;2023-09-07T05:57:05;101365.63;;;17.36;75.29
67987;BME280;54767;53.800;15.956;2023-09-07T05:59:38;101369.64;;;17.43;75.37
67987;BME280;54767;53.800;15.956;2023-09-07T06:02:06;101377.23;;;17.48;75.38
67987;BME280;54767;53.800;15.956;2023-09-07T06:04:34;101381.63;;;17.49;75.28
67987;BME280;54767;53.800;15.956;2023-09-07T06:07:04;101381.63;;;17.50;75.23
67987;BME280;54767;53.800;15.956;2023-09-07T06:09:32;101384.77;;;17.52;75.51
67987;BME280;54767;53.800;15.956;2023-09-07T06:12:03;101382.80;;;17.58;75.78
67987;BME280;54767;53.800;15.956;2023-09-07T06:14:31;101382.71;;;17.67;75.63
67987;BME280;54767;53.800;15.956;2023-09-07T06:16:58;101381.76;;;17.75;75.87
67987;BME280;54767;53.800;15.956;2023-09-07T06:19:26;101381.16;;;17.85;75.92
67987;BME280;54767;53.800;15.956;2023-09-07T06:21:54;101380.01;;;17.94;75.93
67987;BME280;54767;53.800;15.956;2023-09-07T06:24:23;101382.22;;;18.03;75.90
67987;BME280;54767;53.800;15.956;2023-09-07T06:26:53;101380.52;;;18.14;76.02
67987;BME280;54767;53.800;15.956;2023-09-07T06:29:21;101381.11;;;18.24;75.95
67987;BME280;54767;53.800;15.956;2023-09-07T06:31:49;101380.67;;;18.31;75.85
67987;BME280;54767;53.800;15.956;2023-09-07T06:34:17;101381.14;;;18.36;75.51
67987;BME280;54767;53.800;15.956;2023-09-07T06:36:47;101378.95;;;18.42;75.48
67987;BME280;54767;53.800;15.956;2023-09-07T06:39:15;101378.31;;;18.50;75.80
67987;BME280;54767;53.800;15.956;2023-09-07T06:41:46;101378.73;;;18.60;75.37
67987;BME280;54767;53.800;15.956;2023-09-07T06:44:16;101381.34;;;18.63;75.24
67987;BME280;54767;53.800;15.956;2023-09-07T06:46:45;101384.80;;;18.69;75.44
67987;BME280;54767;53.800;15.956;2023-09-07T06:49:23;101382.81;;;18.74;75.06
67987;BME280;54767;53.800;15.956;2023-09-07T06:51:51;101386.10;;;18.81;75.19
67987;BME280;54767;53.800;15.956;2023-09-07T06:54:18;101387.95;;;18.89;75.24
67987;BME280;54767;53.800;15.956;2023-09-07T06:56:46;101386.05;;;18.98;75.24
67987;BME280;54767;53.800;15.956;2023-09-07T06:59:13;101384.13;;;19.08;75.18
67987;BME280;54767;53.800;15.956;2023-09-07T07:01:41;101382.02;;;19.18;75.48
67987;BME280;54767;53.800;15.956;2023-09-07T07:04:08;101382.58;;;19.27;75.24
67987;BME280;54767;53.800;15.956;2023-09-07T07:06:37;101382.48;;;19.34;74.77
67987;BME280;54767;53.800;15.956;2023-09-07T07:09:05;101382.54;;;19.41;74.98
67987;BME280;54767;53.800;15.956;2023-09-07T07:11:32;101382.75;;;19.50;75.10
67987;BME280;54767;53.800;15.956;2023-09-07T07:14:02;101386.71;;;19.57;74.94
67987;BME280;54767;53.800;15.956;2023-09-07T07:16:29;101385.18;;;19.65;75.07
67987;BME280;54767;53.800;15.956;2023-09-07T07:18:59;101388.08;;;19.73;75.15
67987;BME280;54767;53.800;15.956;2023-09-07T07:21:47;101390.23;;;19.82;74.97
67987;BME280;54767;53.800;15.956;2023-09-07T07:24:22;101391.63;;;19.93;75.18
67987;BME280;54767;53.800;15.956;2023-09-07T07:26:49;101387.74;;;20.01;75.01
67987;BME280;54767;53.800;15.956;2023-09-07T07:29:16;101387.02;;;20.11;74.83
67987;BME280;54767;53.800;15.956;2023-09-07T07:31:43;101388.48;;;20.19;75.21
67987;BME280;54767;53.800;15.956;2023-09-07T07:34:10;101389.02;;;20.27;74.58
67987;BME280;54767;53.800;15.956;2023-09-07T07:36:37;101393.30;;;20.35;74.26
67987;BME280;54767;53.800;15.956;2023-09-07T07:39:05;101397.38;;;20.45;74.29
67987;BME280;54767;53.800;15.956;2023-09-07T07:41:34;101400.95;;;20.55;73.80
67987;BME280;54767;53.800;15.956;2023-09-07T07:44:01;101396.55;;;20.61;73.92
67987;BME280;54767;53.800;15.956;2023-09-07T07:46:28;101399.58;;;20.69;73.79
67987;BME280;54767;53.800;15.956;2023-09-07T07:48:55;101397.27;;;20.77;73.83
67987;BME280;54767;53.800;15.956;2023-09-07T07:51:22;101396.41;;;20.84;73.62
67987;BME280;54767;53.800;15.956;2023-09-07T07:53:49;101395.52;;;20.92;73.45
67987;BME280;54767;53.800;15.956;2023-09-07T07:56:17;101394.07;;;21.01;73.40
67987;BME280;54767;53.800;15.956;2023-09-07T07:58:45;101392.77;;;21.11;73.38
67987;BME280;54767;53.800;15.956;2023-09-07T08:01:16;101393.77;;;21.22;73.25
67987;BME280;54767;53.800;15.956;2023-09-07T08:03:43;101392.47;;;21.31;72.80
67987;BME280;54767;53.800;15.956;2023-09-07T08:06:11;101393.41;;;21.37;72.63
67987;BME280;54767;53.800;15.956;2023-09-07T08:08:39;101395.37;;;21.45;72.48
67987;BME280;54767;53.800;15.956;2023-09-07T08:11:06;101398.77;;;21.51;72.66
67987;BME280;54767;53.800;15.956;2023-09-07T08:13:34;101397.70;;;21.59;72.26
67987;BME280;54767;53.800;15.956;2023-09-07T08:16:02;101401.30;;;21.65;72.19
67987;BME280;54767;53.800;15.956;2023-09-07T08:18:31;101401.23;;;21.74;71.94
67987;BME280;54767;53.800;15.956;2023-09-07T08:20:59;101404.22;;;21.83;71.85
67987;BME280;54767;53.800;15.956;2023-09-07T08:23:26;101404.39;;;21.90;71.23
67987;BME280;54767;53.800;15.956;2023-09-07T08:25:53;101404.74;;;21.97;71.38
67987;BME280;54767;53.800;15.956;2023-09-07T08:28:20;101401.39;;;22.03;71.22
67987;BME280;54767;53.800;15.956;2023-09-07T08:30:49;101402.08;;;22.10;71.01
67987;BME280;54767;53.800;15.956;2023-09-07T08:33:22;101400.84;;;22.17;70.56
67987;BME280;54767;53.800;15.956;2023-09-07T08:35:54;101402.09;;;22.24;70.44
67987;BME280;54767;53.800;15.956;2023-09-07T08:38:22;101398.13;;;22.31;70.56
67987;BME280;54767;53.800;15.956;2023-09-07T08:41:00;101400.41;;;22.39;70.94
67987;BME280;54767;53.800;15.956;2023-09-07T08:43:29;101399.67;;;22.46;70.78
67987;BME280;54767;53.800;15.956;2023-09-07T08:46:04;101402.39;;;22.50;70.45
67987;BME280;54767;53.800;15.956;2023-09-07T08:48:39;101402.56;;;22.57;70.32
67987;BME280;54767;53.800;15.956;2023-09-07T08:51:09;101397.56;;;22.63;69.67
67987;BME280;54767;53.800;15.956;2023-09-07T08:53:39;101401.71;;;22.68;69.44
67987;BME280;54767;53.800;15.956;2023-09-07T08:56:07;101402.07;;;22.74;69.22
67987;BME280;54767;53.800;15.956;2023-09-07T08:58:40;101406.46;;;22.82;69.44
67987;BME280;54767;53.800;15.956;2023-09-07T09:01:07;101406.73;;;22.90;69.46
67987;BME280;54767;53.800;15.956;2023-09-07T09:03:39;101409.38;;;22.98;69.38
67987;BME280;54767;53.800;15.956;2023-09-07T09:06:17;101407.23;;;23.04;69.43
67987;BME280;54767;53.800;15.956;2023-09-07T09:08:50;101410.70;;;23.13;68.65
67987;BME280;54767;53.800;15.956;2023-09-07T09:11:18;101410.16;;;23.19;68.26
67987;BME280;54767;53.800;15.956;2023-09-07T09:17:43;101405.20;;;23.30;67.83
67987;BME280;54767;53.800;15.956;2023-09-07T11:51:44;101340.32;;;25.62;59.33
67987;BME280;54767;53.800;15.956;2023-09-07T11:54:32;101336.92;;;25.70;59.31
67987;BME280;54767;53.800;15.956;2023-09-07T11:57:41;101325.08;;;25.71;59.00
67987;BME280;54767;53.800;15.956;2023-09-07T12:00:11;101334.48;;;25.81;59.03
67987;BME280;54767;53.800;15.956;2023-09-07T13:29:20;101293.46;;;26.59;54.96
67987;BME280;54767;53.800;15.956;2023-09-07T13:32:17;101285.17;;;26.60;54.70
67987;BME280;54767;53.800;15.956;2023-09-07T14:57:25;101252.23;;;26.58;52.81
67987;BME280;54767;53.800;15.956;2023-09-07T14:59:53;101250.84;;;26.56;52.71
67987;BME280;54767;53.800;15.956;2023-09-07T15:26:01;101226.77;;;26.19;53.44
67987;BME280;54767;53.800;15.956;2023-09-07T15:28:52;101226.71;;;26.16;53.49
67987;BME280;54767;53.800;15.956;2023-09-07T15:31:19;101228.63;;;26.13;53.83
67987;BME280;54767;53.800;15.956;2023-09-07T15:33:46;101227.13;;;26.11;53.74
67987;BME280;54767;53.800;15.956;2023-09-07T15:36:14;101224.55;;;26.09;53.90
67987;BME280;54767;53.800;15.956;2023-09-07T15:39:05;101226.92;;;26.08;53.73
67987;BME280;54767;53.800;15.956;2023-09-07T15:41:47;101216.68;;;26.04;53.71
67987;BME280;54767;53.800;15.956;2023-09-07T15:44:59;101208.77;;;25.98;53.45
67987;BME280;54767;53.800;15.956;2023-09-07T15:47:37;101206.67;;;25.92;54.05
67987;BME280;54767;53.800;15.956;2023-09-07T15:50:29;101204.55;;;25.88;54.31
67987;BME280;54767;53.800;15.956;2023-09-07T15:53:18;101201.34;;;25.83;54.53
67987;BME280;54767;53.800;15.956;2023-09-07T15:56:26;101201.20;;;25.78;54.74
67987;BME280;54767;53.800;15.956;2023-09-07T15:58:54;101200.64;;;25.75;54.70
67987;BME280;54767;53.800;15.956;2023-09-07T16:01:22;101205.09;;;25.71;54.94
67987;BME280;54767;53.800;15.956;2023-09-07T16:04:10;101200.09;;;25.67;54.82
67987;BME280;54767;53.800;15.956;2023-09-07T16:06:37;101202.89;;;25.65;55.06
67987;BME280;54767;53.800;15.956;2023-09-07T16:09:16;101203.73;;;25.61;55.41
67987;BME280;54767;53.800;15.956;2023-09-07T16:12:11;101204.82;;;25.58;55.25
67987;BME280;54767;53.800;15.956;2023-09-07T16:14:43;101203.96;;;25.53;55.40
67987;BME280;54767;53.800;15.956;2023-09-07T16:17:14;101200.20;;;25.49;55.53
67987;BME280;54767;53.800;15.956;2023-09-07T16:19:45;101200.72;;;25.45;55.38
67987;BME280;54767;53.800;15.956;2023-09-07T16:22:45;101199.88;;;25.40;55.76
67987;BME280;54767;53.800;15.956;2023-09-07T16:29:19;101208.46;;;25.28;56.04
67987;BME280;54767;53.800;15.956;2023-09-07T16:32:05;101206.38;;;25.23;55.86
67987;BME280;54767;53.800;15.956;2023-09-07T16:34:41;101208.36;;;25.18;56.17
67987;BME280;54767;53.800;15.956;2023-09-07T16:37:12;101202.26;;;25.14;56.09
67987;BME280;54767;53.800;15.956;2023-09-07T20:21:29;101233.88;;;20.95;68.34
67987;BME280;54767;53.800;15.956;2023-09-07T20:24:46;101230.61;;;20.90;68.65
67987;BME280;54767;53.800;15.956;2023-09-07T20:36:17;101237.40;;;20.74;68.80
67987;BME280;54767;53.800;15.956;2023-09-07T20:40:12;101235.20;;;20.69;68.89
67987;BME280;54767;53.800;15.956;2023-09-07T20:46:58;101238.23;;;20.62;68.99
67987;BME280;54767;53.800;15.956;2023-09-07T21:28:00;101230.84;;;20.18;69.48
67987;BME280;54767;53.800;15.956;2023-09-07T21:30:34;101235.14;;;20.16;69.44
67987;BME280;54767;53.800;15.956;2023-09-07T21:34:05;101235.74;;;20.13;69.47
67987;BME280;54767;53.800;15.956;2023-09-07T21:36:45;101238.32;;;20.09;69.68
67987;BME280;54767;53.800;15.956;2023-09-07T21:39:14;101236.80;;;20.05;69.69
67987;BME280;54767;53.800;15.956;2023-09-07T21:41:47;101235.82;;;20.01;69.74
67987;BME280;54767;53.800;15.956;2023-09-07T21:44:50;101224.42;;;19.94;69.62
67987;BME280;54767;53.800;15.956;2023-09-07T21:48:27;101218.13;;;19.89;69.66
67987;BME280;54767;53.800;15.956;2023-09-07T21:52:03;101228.94;;;19.90;69.86
67987;BME280;54767;53.800;15.956;2023-09-07T21:54:32;101228.48;;;19.87;69.89
67987;BME280;54767;53.800;15.956;2023-09-07T21:57:00;101232.81;;;19.83;69.91
67987;BME280;54767;53.800;15.956;2023-09-07T21:59:32;101236.46;;;19.78;70.04
67987;BME280;54767;53.800;15.956;2023-09-07T22:02:01;101233.87;;;19.75;70.17
67987;BME280;54767;53.800;15.956;2023-09-07T22:04:30;101233.21;;;19.72;70.12
67987;BME280;54767;53.800;15.956;2023-09-07T22:07:01;101228.83;;;19.70;70.11
67987;BME280;54767;53.800;15.956;2023-09-07T22:09:31;101226.41;;;19.65;70.10
67987;BME280;54767;53.800;15.956;2023-09-07T22:12:00;101224.02;;;19.59;70.23
67987;BME280;54767;53.800;15.956;2023-09-07T22:14:31;101229.80;;;19.54;70.43
67987;BME280;54767;53.800;15.956;2023-09-07T22:17:01;101233.61;;;19.50;70.26
67987;BME280;54767;53.800;15.956;2023-09-07T22:19:32;101235.42;;;19.47;70.26
67987;BME280;54767;53.800;15.956;2023-09-07T22:22:01;101231.96;;;19.44;70.27
67987;BME280;54767;53.800;15.956;2023-09-07T22:24:33;101230.41;;;19.41;70.29
67987;BME280;54767;53.800;15.956;2023-09-07T22:27:01;101227.98;;;19.37;70.27
67987;BME280;54767;53.800;15.956;2023-09-07T22:29:29;101226.45;;;19.34;70.20
67987;BME280;54767;53.800;15.956;2023-09-07T22:31:58;101222.96;;;19.30;70.26
67987;BME280;54767;53.800;15.956;2023-09-07T22:34:27;101227.67;;;19.26;69.92
67987;BME280;54767;53.800;15.956;2023-09-07T22:37:00;101224.52;;;19.23;70.20
67987;BME280;54767;53.800;15.956;2023-09-07T22:39:28;101222.61;;;19.21;70.35
67987;BME280;54767;53.800;15.956;2023-09-07T22:41:57;101217.66;;;19.20;70.50
67987;BME280;54767;53.800;15.956;2023-09-07T22:44:25;101216.29;;;19.17;70.58
67987;BME280;54767;53.800;15.956;2023-09-07T22:46:54;101216.50;;;19.15;70.78
67987;BME280;54767;53.800;15.956;2023-09-07T22:49:22;101213.17;;;19.13;70.80
67987;BME280;54767;53.800;15.956;2023-09-07T22:51:50;101210.16;;;19.12;70.89
67987;BME280;54767;53.800;15.956;2023-09-07T22:54:19;101208.58;;;19.12;70.97
67987;BME280;54767;53.800;15.956;2023-09-07T22:57:01;101205.39;;;19.11;70.90
67987;BME280;54767;53.800;15.956;2023-09-07T22:59:37;101207.74;;;19.09;71.06
67987;BME280;54767;53.800;15.956;2023-09-07T23:02:05;101206.88;;;19.08;71.34
67987;BME280;54767;53.800;15.956;2023-09-07T23:04:34;101204.04;;;19.08;71.25
67987;BME280;54767;53.800;15.956;2023-09-07T23:07:02;101206.33;;;19.09;71.34
67987;BME280;54767;53.800;15.956;2023-09-07T23:09:30;101206.13;;;19.10;71.22
67987;BME280;54767;53.800;15.956;2023-09-07T23:11:59;101206.30;;;19.10;71.10
67987;BME280;54767;53.800;15.956;2023-09-07T23:14:27;101203.48;;;19.09;71.13
67987;BME280;54767;53.800;15.956;2023-09-07T23:16:55;101203.33;;;19.08;71.32
67987;BME280;54767;53.800;15.956;2023-09-07T23:19:24;101203.17;;;19.06;71.24
67987;BME280;54767;53.800;15.956;2023-09-07T23:21:52;101204.45;;;19.04;71.37
67987;BME280;54767;53.800;15.956;2023-09-07T23:24:20;101202.86;;;19.04;71.57
67987;BME280;54767;53.800;15.956;2023-09-07T23:26:48;101203.88;;;19.06;71.50
67987;BME280;54767;53.800;15.956;2023-09-07T23:29:18;101203.70;;;19.07;71.58
67987;BME280;54767;53.800;15.956;2023-09-07T23:31:46;101206.71;;;19.07;71.88
67987;BME280;54767;53.800;15.956;2023-09-07T23:34:15;101207.27;;;19.05;71.83
67987;BME280;54767;53.800;15.956;2023-09-07T23:36:44;101205.73;;;19.02;72.02
67987;BME280;54767;53.800;15.956;2023-09-07T23:39:12;101208.98;;;18.99;72.08
67987;BME280;54767;53.800;15.956;2023-09-07T23:41:41;101207.58;;;18.98;72.00
67987;BME280;54767;53.800;15.956;2023-09-07T23:44:09;101204.56;;;18.97;72.07
67987;BME280;54767;53.800;15.956;2023-09-07T23:46:37;101207.75;;;18.98;72.04
67987;BME280;54767;53.800;15.956;2023-09-07T23:49:06;101207.95;;;18.97;71.80
67987;BME280;54767;53.800;15.956;2023-09-07T23:51:34;101203.73;;;18.94;71.70
67987;BME280;54767;53.800;15.956;2023-09-07T23:54:02;101208.40;;;18.91;71.53
67987;BME280;54767;53.800;15.956;2023-09-07T23:56:30;101206.49;;;18.88;71.65
67987;BME280;54767;53.800;15.956;2023-09-07T23:58:58;101209.19;;;18.86;71.47
